Portada
METAR-TAF:

METAR-TAF

Aeroports :

Sevilla, Espanya

latitud: 37-25N, longitud: 005-54W, altitud: 34 m

Observació

L'informe es va fer fa 36 minuts, a les 11:00 UTC
Vent 2 kt del Nord-Est
Temperatura 32°C
Humitat 32%
Pressió 1014 hPa
Visibilitat 10 km o més
sense núvols per sota de 1500 mi sense presència de cumulonimbus.

METAR: LEZL 171100Z 04002KT CAVOK 32/13 Q1014 NOSIG

Hora: 13:36 (11:36 UTC)

Pronòstic

L'informe es va fer fa 3 hores i 36 minuts, a les 08:00 UTC
Pronòstic vàlid del 17 a les 09 UTC al 18 a les 09 UTC
Vent 5 kt del Nord-Est
Visibilitat 10 km o més
sense núvols per sota de 1500 mi sense presència de cumulonimbus.
Evolucionant progressivament
l' 17 a les 14 UTC al 17 a les 16 UTC
Vent 10 kt del Oest/Sud-Oest

TAF: LEZL 170800Z 1709/1809 04005KT CAVOK TX37/1716Z TN18/1806Z BECMG 1714/1716 24010KT

Observacions i pronòstics meteorològics de més de 4000 aeroports (METAR i TAF).

Les estacions disponibles són els punts grocs i vermells al mapa.

Posi el ratolí al punt desitjat per veure el nom de l'estació.

Feu clic per veure les observacions i els pronòstics meteorològics.

Per canviar el mapa: feu clic els botons verds amb una creu de color negre per apropar; al botó verd amb un guió per allunyar la imatge; o en les fletxes verdes per a mapes adjacents.


METAR-TAF: